»·PEaware :: N28SG KFUL-KGCN

N28SG :: KFUL-KGCN

FLIGHT INFORMATION

Flight Status: Arrived
Operator: Privately registered:
United States
More flights under this callsign
Pilot: Ed K. (45826)
Aircraft: PIPER PA-24 COMMANCHE
(PA24)
More flights by this aircraft type
Origin: KFUL Fullerton Mun
United States
Destination: KGCN Grand Canyon Natl Park
United States
More flights between these airports :: More routes between these airports
Route:
File this flight plan on PilotEdge
Remarks:
Altitude:
(Current/Filed)
9,500ft
Speed:
(Current/Filed)
150kts
Departed: 12-Feb-24 07:00 PM
Arrived: 12-Feb-24 09:16 PM
Distance/Time
Traveled:
313nm/2:16
Distance/Time
To Go:
Arrived

Flight Plot

Page will automatically refresh every two minutes.


Map Options




Map Legend


Flown Route
Filed Route
Departure Airport
Arrival Airport
Navaid (VOR, NDB)
Fix

Horizontal Profiles

Position Reports

Time Latitude Longitude Heading Altitude Ground
Speed
12-Feb-24 18:43 33.872750 -117.981140 358 90ft 0kts
12-Feb-24 18:44 33.872750 -117.981140 358 90ft 0kts
12-Feb-24 18:45 33.872750 -117.981140 358 90ft 0kts
12-Feb-24 18:46 33.872750 -117.981140 358 90ft 0kts
12-Feb-24 18:47 33.872750 -117.981140 358 90ft 0kts
12-Feb-24 18:48 33.872750 -117.981140 358 90ft 0kts
12-Feb-24 18:49 33.872750 -117.981140 358 90ft 0kts
12-Feb-24 18:50 33.872750 -117.981140 358 90ft 0kts
12-Feb-24 18:51 33.872750 -117.981140 358 90ft 0kts
12-Feb-24 18:52 33.872750 -117.981140 358 90ft 0kts
12-Feb-24 18:53 33.872750 -117.981140 358 90ft 0kts
12-Feb-24 18:54 33.872682 -117.980826 93 93ft 10kts
12-Feb-24 18:55 33.872900 -117.977508 78 98ft 15kts
12-Feb-24 18:56 33.873206 -117.975926 86 99ft 0kts
12-Feb-24 18:57 33.873206 -117.975926 86 99ft 0kts
12-Feb-24 18:58 33.873160 -117.975521 100 100ft 10kts
12-Feb-24 18:59 33.871579 -117.982199 258 212ft 79kts
12-Feb-24 19:00 33.856829 -117.994002 141 1428ft 100kts
12-Feb-24 19:01 33.858022 -117.961111 58 2764ft 97kts
12-Feb-24 19:02 33.869649 -117.929428 75 3737ft 114kts
12-Feb-24 19:03 33.873775 -117.891538 84 4732ft 113kts
12-Feb-24 19:04 33.874988 -117.852924 88 5649ft 115kts
12-Feb-24 19:05 33.874851 -117.813803 90 6547ft 118kts
12-Feb-24 19:06 33.870876 -117.774136 98 7356ft 119kts
12-Feb-24 19:07 33.866848 -117.734097 97 8120ft 121kts
12-Feb-24 19:08 33.862527 -117.693328 98 8859ft 124kts
12-Feb-24 19:09 33.858006 -117.650452 96 9445ft 132kts
12-Feb-24 19:10 33.853736 -117.601994 92 9495ft 155kts
12-Feb-24 19:11 33.850889 -117.550274 93 9476ft 150kts
12-Feb-24 19:12 33.848506 -117.500685 91 9488ft 149kts
12-Feb-24 19:13 33.847556 -117.451130 88 9484ft 147kts
12-Feb-24 19:14 33.846898 -117.401866 91 9488ft 147kts
12-Feb-24 19:15 33.846720 -117.352291 89 9475ft 147kts
12-Feb-24 19:16 33.855617 -117.304080 82 9474ft 147kts
12-Feb-24 19:17 33.858601 -117.254800 88 9476ft 147kts
12-Feb-24 19:18 33.861279 -117.205535 77 9477ft 148kts
12-Feb-24 19:19 33.870203 -117.157092 78 9460ft 146kts
12-Feb-24 19:20 33.879502 -117.109326 77 9477ft 147kts
12-Feb-24 19:21 33.888847 -117.061164 77 9483ft 147kts
12-Feb-24 19:22 33.898356 -117.013392 76 9488ft 147kts
12-Feb-24 19:23 33.907885 -116.965530 76 9488ft 147kts
12-Feb-24 19:24 33.917553 -116.917638 76 9483ft 147kts
12-Feb-24 19:25 33.927315 -116.869637 76 9496ft 148kts
12-Feb-24 19:26 33.937346 -116.821122 76 9492ft 150kts
12-Feb-24 19:27 33.944258 -116.772098 100 9501ft 150kts
12-Feb-24 19:28 33.937392 -116.722622 95 9509ft 150kts
12-Feb-24 19:29 33.937687 -116.672879 77 9512ft 149kts
12-Feb-24 19:30 33.943088 -116.622933 83 9512ft 150kts
12-Feb-24 19:31 33.953808 -116.574504 72 9511ft 149kts
12-Feb-24 19:32 33.965976 -116.526600 73 9512ft 149kts
12-Feb-24 19:33 33.978189 -116.479003 73 9513ft 149kts
12-Feb-24 19:34 33.990711 -116.431176 72 9512ft 149kts
12-Feb-24 19:35 34.003280 -116.383653 72 9513ft 148kts
12-Feb-24 19:36 34.015669 -116.336338 75 9516ft 148kts
12-Feb-24 19:37 34.026956 -116.288757 74 9519ft 147kts
12-Feb-24 19:38 34.038295 -116.241330 74 9539ft 146kts
12-Feb-24 19:39 34.049703 -116.194141 73 9549ft 146kts
12-Feb-24 19:40 34.061216 -116.147082 73 9551ft 146kts
12-Feb-24 19:41 34.071690 -116.099540 76 9555ft 147kts
12-Feb-24 19:42 34.081362 -116.051691 76 9554ft 146kts
12-Feb-24 19:43 34.091220 -116.004073 76 9548ft 146kts
12-Feb-24 19:44 34.101138 -115.956215 76 9546ft 146kts
12-Feb-24 19:45 34.111244 -115.908527 76 9545ft 146kts
12-Feb-24 19:46 34.121427 -115.860847 75 9538ft 146kts
12-Feb-24 19:47 34.130808 -115.812872 77 9532ft 147kts
12-Feb-24 19:48 34.139872 -115.764902 77 9529ft 146kts
12-Feb-24 19:49 34.149109 -115.716767 77 9524ft 146kts
12-Feb-24 19:50 34.166767 -115.672377 63 9524ft 147kts
12-Feb-24 19:51 34.187490 -115.629609 57 9524ft 148kts
12-Feb-24 19:52 34.210002 -115.587798 58 9518ft 148kts
12-Feb-24 19:53 34.232560 -115.545915 58 9519ft 148kts
12-Feb-24 19:54 34.255048 -115.503993 58 9513ft 150kts
12-Feb-24 19:55 34.277902 -115.461899 58 9517ft 149kts
12-Feb-24 19:56 34.300484 -115.419832 58 9512ft 149kts
12-Feb-24 19:57 34.322970 -115.377559 58 9513ft 149kts
12-Feb-24 19:58 34.345509 -115.335435 57 9518ft 149kts
12-Feb-24 19:59 34.368290 -115.293305 57 9511ft 149kts
12-Feb-24 20:00 34.390792 -115.251045 60 9513ft 149kts
12-Feb-24 20:01 34.412694 -115.208388 59 9517ft 149kts
12-Feb-24 20:02 34.434912 -115.165989 60 9511ft 149kts
12-Feb-24 20:03 34.456105 -115.122617 60 9509ft 149kts
12-Feb-24 20:04 34.476977 -115.079203 62 9501ft 147kts
12-Feb-24 20:05 34.498206 -115.036429 60 9511ft 149kts
12-Feb-24 20:06 34.518834 -114.992761 60 9508ft 149kts
12-Feb-24 20:07 34.540297 -114.949412 60 9501ft 149kts
12-Feb-24 20:08 34.560755 -114.905415 63 9503ft 150kts
12-Feb-24 20:09 34.581589 -114.861511 63 9507ft 150kts
12-Feb-24 20:10 34.602859 -114.817592 62 9506ft 151kts
12-Feb-24 20:11 34.623525 -114.773225 61 9504ft 151kts
12-Feb-24 20:12 34.644691 -114.729070 64 9509ft 151kts
12-Feb-24 20:13 34.665548 -114.685150 59 9511ft 149kts
12-Feb-24 20:14 34.685693 -114.642219 57 9508ft 146kts
12-Feb-24 20:15 34.706170 -114.599901 60 9513ft 145kts
12-Feb-24 20:16 34.726882 -114.556606 59 9518ft 149kts
12-Feb-24 20:17 34.748404 -114.513012 61 9512ft 150kts
12-Feb-24 20:18 34.770179 -114.469465 61 9508ft 151kts
12-Feb-24 20:19 34.791844 -114.425777 64 9504ft 151kts
12-Feb-24 20:20 34.813616 -114.382215 60 9499ft 151kts
12-Feb-24 20:21 34.835930 -114.338765 59 9492ft 151kts
12-Feb-24 20:22 34.859154 -114.296184 57 9485ft 151kts
12-Feb-24 20:23 34.882728 -114.253685 56 9483ft 151kts
12-Feb-24 20:24 34.906167 -114.211337 56 9478ft 151kts
12-Feb-24 20:25 34.930422 -114.169485 57 9478ft 151kts
12-Feb-24 20:26 34.953587 -114.126766 55 9480ft 151kts
12-Feb-24 20:27 34.977019 -114.084220 56 9489ft 150kts
12-Feb-24 20:28 35.000795 -114.042075 56 9495ft 150kts
12-Feb-24 20:29 35.024344 -113.999770 55 9501ft 150kts
12-Feb-24 20:30 35.047941 -113.957464 55 9508ft 150kts
12-Feb-24 20:31 35.071697 -113.915076 55 9514ft 150kts
12-Feb-24 20:32 35.095542 -113.872717 56 9516ft 151kts
12-Feb-24 20:33 35.118831 -113.830702 57 9517ft 151kts
12-Feb-24 20:34 35.141892 -113.787736 56 9516ft 151kts
12-Feb-24 20:35 35.163833 -113.743842 57 9519ft 150kts
12-Feb-24 20:36 35.185955 -113.700218 59 9512ft 150kts
12-Feb-24 20:37 35.207738 -113.656355 59 9510ft 151kts
12-Feb-24 20:38 35.229458 -113.612372 59 9511ft 151kts
12-Feb-24 20:39 35.250554 -113.568112 57 9511ft 150kts
12-Feb-24 20:40 35.272654 -113.524618 54 9510ft 151kts
12-Feb-24 20:41 35.295157 -113.480819 57 9505ft 151kts
12-Feb-24 20:42 35.316765 -113.436534 56 9509ft 151kts
12-Feb-24 20:43 35.338480 -113.392383 57 9511ft 151kts
12-Feb-24 20:44 35.360221 -113.348018 57 9509ft 151kts
12-Feb-24 20:45 35.382082 -113.303922 57 9510ft 151kts
12-Feb-24 20:47 35.403936 -113.260027 57 9512ft 150kts
12-Feb-24 20:48 35.425821 -113.216140 57 9514ft 151kts
12-Feb-24 20:49 35.447787 -113.172076 58 9521ft 151kts
12-Feb-24 20:50 35.469563 -113.128204 53 9524ft 150kts
12-Feb-24 20:51 35.494024 -113.086438 52 9527ft 150kts
12-Feb-24 20:52 35.518024 -113.044211 54 9531ft 150kts
12-Feb-24 20:53 35.540823 -113.001006 56 9535ft 150kts
12-Feb-24 20:54 35.563090 -112.957223 56 9544ft 151kts
12-Feb-24 20:55 35.584941 -112.912982 57 9548ft 151kts
12-Feb-24 20:56 35.607224 -112.867863 56 9321ft 162kts
12-Feb-24 20:57 35.630374 -112.820976 57 9138ft 158kts
12-Feb-24 20:58 35.653607 -112.773465 57 8769ft 164kts
12-Feb-24 20:59 35.677018 -112.725953 57 8519ft 159kts
12-Feb-24 21:00 35.700044 -112.679026 57 7832ft 160kts
12-Feb-24 21:01 35.722494 -112.632792 58 7539ft 154kts
12-Feb-24 21:02 35.744269 -112.588154 57 7547ft 150kts
12-Feb-24 21:03 35.765886 -112.544066 57 7554ft 150kts
12-Feb-24 21:04 35.786678 -112.501639 57 7723ft 145kts
12-Feb-24 21:05 35.807973 -112.458208 57 7728ft 149kts
12-Feb-24 21:06 35.829387 -112.414435 57 7720ft 149kts
12-Feb-24 21:07 35.850945 -112.370372 58 7712ft 150kts
12-Feb-24 21:08 35.872476 -112.326203 58 7701ft 150kts
12-Feb-24 21:08 35.890361 -112.289446 57 7690ft 149kts
12-Feb-24 21:09 35.912812 -112.247261 49 7747ft 138kts
12-Feb-24 21:11 35.938697 -112.206302 52 7841ft 120kts
12-Feb-24 21:12 35.958089 -112.173064 69 7722ft 121kts
12-Feb-24 21:13 35.978561 -112.143852 43 7521ft 93kts
12-Feb-24 21:13 35.975534 -112.125942 163 7362ft 72kts
12-Feb-24 21:14 35.956843 -112.142238 219 6602ft 69kts
12-Feb-24 21:15 35.951805 -112.146028 84 6575ft 0kts
12-Feb-24 21:16 35.953673 -112.143806 38 6583ft 17kts
12-Feb-24 21:18 35.953696 -112.142639 38 6585ft 0kts
12-Feb-24 21:18 35.953696 -112.142639 38 6585ft 0kts
12-Feb-24 21:19 35.953696 -112.142639 38 6585ft 0kts
12-Feb-24 21:20 35.953696 -112.142639 38 6585ft 0kts
12-Feb-24 21:21 35.953696 -112.142639 38 6585ft 0kts

Navigation Log

Ident Type
Flight plan parsing failed, navigation log unavailable